Cambridge, WI (53523)

10:17 AM CST on March 04, 2015 (GMT -0600)
Cambridge | Change Station
CLOSE
Current Station
Personal Weather Station
Location: Cambridge, WI
Elevation: 883 ft
Nearby Weather Stations

Elev 883 ft 43.00 °N, 89.01 °W | Updated 25 seconds ago

Clear
Clear
17.8 °F
Feels Like 12 °F
N
4.0
Wind Variable Wind from North

Today
High -- | Low -- °F
--% Chance of Precip.
Yesterday
High -- | Low -- °F
Precip. -- in
6:27 AM 5:48 PM
Waxing Gibbous, 99% visible
Pressure 30.17 in
Visibility 10.0 miles
Clouds Few 13000 ft
Windchill 12 °F
Dew Point 3 °F
Humidity 51%
Rainfall -999.00 in
Snow Depth Not available.
UV 3 out of 12
Pollen .40 out of 12
Air Quality Not available.
Flu Activity Not available.
METAR KMSN 041553Z 32014G20KT 10SM FEW130 M11/M19 A3013 RMK AO2 SLP216 T11061194

More Conditions Fewer Conditions

Pressure 30.17 in
Visibility 10.0 miles
Clouds Few 13000 ft
Windchill 12 °F
Dew Point 3 °F
Humidity 51%
Rainfall -999.00 in
Snow Depth Not available.
UV 3 out of 12
Pollen .40 out of 12
Air Quality Not available.
Flu Activity Not available.
METAR KMSN 041553Z 32014G20KT 10SM FEW130 M11/M19 A3013 RMK AO2 SLP216 T11061194

More Conditions Fewer Conditions

10-Day Weather Forecast

Almanac

Astronomy

Mar. 04, 2015 Rise Set
Actual Time
Civil Twilight
Nautical Twilight
Astronomical Twilight
Moon
Length of Visible Light
Length of Day
Tomorrow will be .
, % of the Moon is Illuminated

Today's Extremes

State Highs State Lows

Community

WunderPhotos

Upload Photos

1,802,500 photos uploaded!

WunderBlogs® & News

Nearby

Air Quality

  Air Quality AQ Index Pollutant
Not available.

Snow Depth

Station Depth Elevation

Earthquake Activity

City Distance Mag. Time & Date
Minimum magnitude displayed is 2.5.

Coastal Water Temperatures

Place Temperature

Nearby Weather Stations